sensor_id;sensor_type;location;lat;lon;timestamp;temperature;humidity
15819;DHT22;8010;53.986;12.106;2022-09-27T00:01:01;11.60;99.90
15819;DHT22;8010;53.986;12.106;2022-09-27T00:03:27;11.60;99.90
15819;DHT22;8010;53.986;12.106;2022-09-27T00:06:09;11.60;99.90
15819;DHT22;8010;53.986;12.106;2022-09-27T00:08:36;11.60;99.90
15819;DHT22;8010;53.986;12.106;2022-09-27T00:11:28;11.60;99.90
15819;DHT22;8010;53.986;12.106;2022-09-27T00:13:55;11.60;99.90
15819;DHT22;8010;53.986;12.106;2022-09-27T00:16:23;11.60;99.90
15819;DHT22;8010;53.986;12.106;2022-09-27T00:18:49;11.60;99.90
15819;DHT22;8010;53.986;12.106;2022-09-27T00:21:15;12.70;99.90
15819;DHT22;8010;53.986;12.106;2022-09-27T00:23:40;11.60;99.90
15819;DHT22;8010;53.986;12.106;2022-09-27T00:26:07;11.60;99.90
15819;DHT22;8010;53.986;12.106;2022-09-27T00:28:34;11.60;99.90
15819;DHT22;8010;53.986;12.106;2022-09-27T00:31:00;11.70;99.90
15819;DHT22;8010;53.986;12.106;2022-09-27T00:33:26;11.70;99.90
15819;DHT22;8010;53.986;12.106;2022-09-27T00:35:51;11.70;99.90
15819;DHT22;8010;53.986;12.106;2022-09-27T00:38:17;11.70;99.90
15819;DHT22;8010;53.986;12.106;2022-09-27T00:40:43;11.40;99.90
15819;DHT22;8010;53.986;12.106;2022-09-27T00:43:16;11.70;99.90
15819;DHT22;8010;53.986;12.106;2022-09-27T00:45:50;13.00;99.90
15819;DHT22;8010;53.986;12.106;2022-09-27T00:48:21;11.70;99.90
15819;DHT22;8010;53.986;12.106;2022-09-27T00:50:50;11.80;99.90
15819;DHT22;8010;53.986;12.106;2022-09-27T00:55:53;11.80;99.90
15819;DHT22;8010;53.986;12.106;2022-09-27T00:58:23;11.80;99.90
15819;DHT22;8010;53.986;12.106;2022-09-27T01:00:54;11.70;99.90
15819;DHT22;8010;53.986;12.106;2022-09-27T01:06:19;11.80;99.90
15819;DHT22;8010;53.986;12.106;2022-09-27T01:08:45;11.80;99.90
15819;DHT22;8010;53.986;12.106;2022-09-27T01:11:34;11.80;99.90
15819;DHT22;8010;53.986;12.106;2022-09-27T01:14:07;11.80;99.90
15819;DHT22;8010;53.986;12.106;2022-09-27T01:16:47;11.80;99.90
15819;DHT22;8010;53.986;12.106;2022-09-27T01:19:45;11.70;99.90
15819;DHT22;8010;53.986;12.106;2022-09-27T01:22:19;11.70;99.90
15819;DHT22;8010;53.986;12.106;2022-09-27T01:25:02;11.70;99.90
15819;DHT22;8010;53.986;12.106;2022-09-27T01:30:21;11.60;99.90
15819;DHT22;8010;53.986;12.106;2022-09-27T01:43:17;11.50;99.90
15819;DHT22;8010;53.986;12.106;2022-09-27T01:46:11;11.50;99.90
15819;DHT22;8010;53.986;12.106;2022-09-27T01:48:43;11.40;99.90
15819;DHT22;8010;53.986;12.106;2022-09-27T01:51:28;11.40;99.90
15819;DHT22;8010;53.986;12.106;2022-09-27T01:53:59;11.40;99.90
15819;DHT22;8010;53.986;12.106;2022-09-27T01:56:32;11.30;99.90
15819;DHT22;8010;53.986;12.106;2022-09-27T01:59:19;11.30;99.90
15819;DHT22;8010;53.986;12.106;2022-09-27T02:01:48;11.20;99.90
15819;DHT22;8010;53.986;12.106;2022-09-27T02:04:18;11.30;99.90
15819;DHT22;8010;53.986;12.106;2022-09-27T02:06:49;11.20;99.90
15819;DHT22;8010;53.986;12.106;2022-09-27T02:09:23;11.20;99.90
15819;DHT22;8010;53.986;12.106;2022-09-27T02:11:54;11.20;99.90
15819;DHT22;8010;53.986;12.106;2022-09-27T02:14:26;11.20;99.90
15819;DHT22;8010;53.986;12.106;2022-09-27T02:17:04;11.20;99.90
15819;DHT22;8010;53.986;12.106;2022-09-27T02:19:43;11.20;99.90
15819;DHT22;8010;53.986;12.106;2022-09-27T02:28:05;11.20;99.90
15819;DHT22;8010;53.986;12.106;2022-09-27T02:30:34;11.20;99.90
15819;DHT22;8010;53.986;12.106;2022-09-27T02:33:00;11.20;99.90
15819;DHT22;8010;53.986;12.106;2022-09-27T02:35:30;11.10;99.90
15819;DHT22;8010;53.986;12.106;2022-09-27T02:37:56;11.10;99.90
15819;DHT22;8010;53.986;12.106;2022-09-27T02:40:23;11.10;99.90
15819;DHT22;8010;53.986;12.106;2022-09-27T02:42:50;11.10;99.90
15819;DHT22;8010;53.986;12.106;2022-09-27T02:45:17;11.10;99.90
15819;DHT22;8010;53.986;12.106;2022-09-27T02:53:23;11.10;99.90
15819;DHT22;8010;53.986;12.106;2022-09-27T02:56:06;11.10;99.90
15819;DHT22;8010;53.986;12.106;2022-09-27T02:58:42;11.10;99.90
15819;DHT22;8010;53.986;12.106;2022-09-27T03:04:19;11.10;99.90
15819;DHT22;8010;53.986;12.106;2022-09-27T03:06:48;11.10;99.90
15819;DHT22;8010;53.986;12.106;2022-09-27T03:09:22;11.00;99.90
15819;DHT22;8010;53.986;12.106;2022-09-27T03:11:47;11.00;99.90
15819;DHT22;8010;53.986;12.106;2022-09-27T03:14:13;11.00;99.90
15819;DHT22;8010;53.986;12.106;2022-09-27T03:16:39;11.00;99.90
15819;DHT22;8010;53.986;12.106;2022-09-27T03:19:04;11.00;99.90
15819;DHT22;8010;53.986;12.106;2022-09-27T03:21:30;10.90;99.90
15819;DHT22;8010;53.986;12.106;2022-09-27T03:23:55;10.90;99.90
15819;DHT22;8010;53.986;12.106;2022-09-27T03:26:21;10.90;99.90
15819;DHT22;8010;53.986;12.106;2022-09-27T03:28:46;10.90;99.90
15819;DHT22;8010;53.986;12.106;2022-09-27T03:31:12;10.90;99.90
15819;DHT22;8010;53.986;12.106;2022-09-27T03:33:39;11.00;99.90
15819;DHT22;8010;53.986;12.106;2022-09-27T03:36:05;10.90;99.90
15819;DHT22;8010;53.986;12.106;2022-09-27T03:38:31;10.90;99.90
15819;DHT22;8010;53.986;12.106;2022-09-27T03:40:56;10.90;99.90
15819;DHT22;8010;53.986;12.106;2022-09-27T03:43:21;10.90;99.90
15819;DHT22;8010;53.986;12.106;2022-09-27T03:45:47;10.90;99.90
15819;DHT22;8010;53.986;12.106;2022-09-27T03:48:13;10.90;99.90
15819;DHT22;8010;53.986;12.106;2022-09-27T03:50:38;10.80;99.90
15819;DHT22;8010;53.986;12.106;2022-09-27T03:53:04;10.90;99.90
15819;DHT22;8010;53.986;12.106;2022-09-27T03:55:29;10.80;99.90
15819;DHT22;8010;53.986;12.106;2022-09-27T03:57:55;10.80;99.90
15819;DHT22;8010;53.986;12.106;2022-09-27T04:00:21;10.80;99.90
15819;DHT22;8010;53.986;12.106;2022-09-27T04:02:47;10.80;99.90
15819;DHT22;8010;53.986;12.106;2022-09-27T04:05:12;10.80;99.90
15819;DHT22;8010;53.986;12.106;2022-09-27T04:07:38;11.20;99.90
15819;DHT22;8010;53.986;12.106;2022-09-27T04:10:04;10.80;99.90
15819;DHT22;8010;53.986;12.106;2022-09-27T04:12:30;10.80;99.90
15819;DHT22;8010;53.986;12.106;2022-09-27T04:14:57;10.80;99.90
15819;DHT22;8010;53.986;12.106;2022-09-27T04:17:22;10.80;99.90
15819;DHT22;8010;53.986;12.106;2022-09-27T04:19:50;10.80;99.90
15819;DHT22;8010;53.986;12.106;2022-09-27T04:22:15;10.90;99.90
15819;DHT22;8010;53.986;12.106;2022-09-27T04:24:41;10.90;99.90
15819;DHT22;8010;53.986;12.106;2022-09-27T04:27:06;10.80;99.90
15819;DHT22;8010;53.986;12.106;2022-09-27T04:29:32;10.90;99.90
15819;DHT22;8010;53.986;12.106;2022-09-27T04:31:58;10.90;99.90
15819;DHT22;8010;53.986;12.106;2022-09-27T04:34:23;10.90;99.90
15819;DHT22;8010;53.986;12.106;2022-09-27T04:37:09;10.90;99.90
15819;DHT22;8010;53.986;12.106;2022-09-27T04:39:36;10.80;99.90
15819;DHT22;8010;53.986;12.106;2022-09-27T04:42:02;10.80;99.90
15819;DHT22;8010;53.986;12.106;2022-09-27T04:44:27;10.80;99.90
15819;DHT22;8010;53.986;12.106;2022-09-27T04:46:53;10.80;99.90
15819;DHT22;8010;53.986;12.106;2022-09-27T04:49:18;10.90;99.90
15819;DHT22;8010;53.986;12.106;2022-09-27T04:51:44;10.90;99.90
15819;DHT22;8010;53.986;12.106;2022-09-27T04:54:09;10.90;99.90
15819;DHT22;8010;53.986;12.106;2022-09-27T04:56:35;10.90;99.90
15819;DHT22;8010;53.986;12.106;2022-09-27T04:59:00;10.90;99.90
15819;DHT22;8010;53.986;12.106;2022-09-27T05:01:26;10.90;99.90
15819;DHT22;8010;53.986;12.106;2022-09-27T05:03:51;10.90;99.90
15819;DHT22;8010;53.986;12.106;2022-09-27T05:06:17;10.90;99.90
15819;DHT22;8010;53.986;12.106;2022-09-27T05:08:42;10.90;99.90
15819;DHT22;8010;53.986;12.106;2022-09-27T05:11:09;10.90;99.90
15819;DHT22;8010;53.986;12.106;2022-09-27T05:13:35;10.90;99.90
15819;DHT22;8010;53.986;12.106;2022-09-27T05:16:04;10.90;99.90
15819;DHT22;8010;53.986;12.106;2022-09-27T05:18:30;10.90;99.90
15819;DHT22;8010;53.986;12.106;2022-09-27T05:20:55;10.90;99.90
15819;DHT22;8010;53.986;12.106;2022-09-27T05:23:23;10.90;99.90
15819;DHT22;8010;53.986;12.106;2022-09-27T05:25:49;10.90;99.90
15819;DHT22;8010;53.986;12.106;2022-09-27T05:28:14;10.90;99.90
15819;DHT22;8010;53.986;12.106;2022-09-27T05:30:40;10.90;99.90
15819;DHT22;8010;53.986;12.106;2022-09-27T05:33:06;10.90;99.90
15819;DHT22;8010;53.986;12.106;2022-09-27T05:35:31;10.90;99.90
15819;DHT22;8010;53.986;12.106;2022-09-27T05:37:59;10.90;99.90
15819;DHT22;8010;53.986;12.106;2022-09-27T05:40:24;10.90;99.90
15819;DHT22;8010;53.986;12.106;2022-09-27T05:42:51;11.00;99.90
15819;DHT22;8010;53.986;12.106;2022-09-27T05:45:17;11.00;99.90
15819;DHT22;8010;53.986;12.106;2022-09-27T05:47:43;11.00;99.90
15819;DHT22;8010;53.986;12.106;2022-09-27T05:50:08;11.00;99.90
15819;DHT22;8010;53.986;12.106;2022-09-27T05:52:34;11.00;99.90
15819;DHT22;8010;53.986;12.106;2022-09-27T05:55:00;11.10;99.90
15819;DHT22;8010;53.986;12.106;2022-09-27T05:57:25;11.10;99.90
15819;DHT22;8010;53.986;12.106;2022-09-27T05:59:51;11.20;99.90
15819;DHT22;8010;53.986;12.106;2022-09-27T06:02:16;11.20;99.90
15819;DHT22;8010;53.986;12.106;2022-09-27T06:04:42;11.20;99.90
15819;DHT22;8010;53.986;12.106;2022-09-27T06:07:08;11.20;99.90
15819;DHT22;8010;53.986;12.106;2022-09-27T06:09:34;11.20;99.90
15819;DHT22;8010;53.986;12.106;2022-09-27T06:11:59;11.20;99.90
15819;DHT22;8010;53.986;12.106;2022-09-27T06:14:25;11.10;99.90
15819;DHT22;8010;53.986;12.106;2022-09-27T06:16:51;11.10;99.90
15819;DHT22;8010;53.986;12.106;2022-09-27T06:19:18;11.20;99.90
15819;DHT22;8010;53.986;12.106;2022-09-27T06:21:43;11.20;99.90
15819;DHT22;8010;53.986;12.106;2022-09-27T06:24:09;11.20;99.90
15819;DHT22;8010;53.986;12.106;2022-09-27T06:26:34;11.20;99.90
15819;DHT22;8010;53.986;12.106;2022-09-27T06:29:01;11.20;99.90
15819;DHT22;8010;53.986;12.106;2022-09-27T06:31:26;11.30;99.90
15819;DHT22;8010;53.986;12.106;2022-09-27T06:33:52;11.30;99.90
15819;DHT22;8010;53.986;12.106;2022-09-27T06:36:17;11.30;99.90
15819;DHT22;8010;53.986;12.106;2022-09-27T06:38:43;11.30;99.90
15819;DHT22;8010;53.986;12.106;2022-09-27T06:41:11;11.30;99.90
15819;DHT22;8010;53.986;12.106;2022-09-27T06:43:37;11.40;99.90
15819;DHT22;8010;53.986;12.106;2022-09-27T06:46:03;11.30;99.90
15819;DHT22;8010;53.986;12.106;2022-09-27T06:48:33;11.30;99.90
15819;DHT22;8010;53.986;12.106;2022-09-27T06:51:02;11.30;99.90
15819;DHT22;8010;53.986;12.106;2022-09-27T06:53:28;11.40;99.90
15819;DHT22;8010;53.986;12.106;2022-09-27T06:55:58;11.40;99.90
15819;DHT22;8010;53.986;12.106;2022-09-27T06:58:25;11.40;99.90
15819;DHT22;8010;53.986;12.106;2022-09-27T07:01:09;11.40;99.90
15819;DHT22;8010;53.986;12.106;2022-09-27T07:03:34;11.40;99.90
15819;DHT22;8010;53.986;12.106;2022-09-27T07:06:05;11.40;99.90
15819;DHT22;8010;53.986;12.106;2022-09-27T07:08:31;11.50;99.90
15819;DHT22;8010;53.986;12.106;2022-09-27T07:11:01;11.50;99.90
15819;DHT22;8010;53.986;12.106;2022-09-27T07:13:28;11.50;99.90
15819;DHT22;8010;53.986;12.106;2022-09-27T07:15:55;11.50;99.90
15819;DHT22;8010;53.986;12.106;2022-09-27T07:18:21;11.60;99.90
15819;DHT22;8010;53.986;12.106;2022-09-27T07:20:47;11.60;99.90
15819;DHT22;8010;53.986;12.106;2022-09-27T07:23:13;11.60;99.90
15819;DHT22;8010;53.986;12.106;2022-09-27T07:25:39;11.60;99.90
15819;DHT22;8010;53.986;12.106;2022-09-27T07:28:07;11.60;99.90
15819;DHT22;8010;53.986;12.106;2022-09-27T07:30:35;11.70;99.90
15819;DHT22;8010;53.986;12.106;2022-09-27T07:33:02;11.70;99.90
15819;DHT22;8010;53.986;12.106;2022-09-27T07:35:29;11.70;99.90
15819;DHT22;8010;53.986;12.106;2022-09-27T07:37:55;11.80;99.90
15819;DHT22;8010;53.986;12.106;2022-09-27T07:40:21;11.90;99.90
15819;DHT22;8010;53.986;12.106;2022-09-27T07:42:52;11.90;99.90
15819;DHT22;8010;53.986;12.106;2022-09-27T07:45:18;12.00;99.90
15819;DHT22;8010;53.986;12.106;2022-09-27T07:47:44;12.00;99.90
15819;DHT22;8010;53.986;12.106;2022-09-27T07:50:09;12.00;99.90
15819;DHT22;8010;53.986;12.106;2022-09-27T07:52:43;12.00;99.90
15819;DHT22;8010;53.986;12.106;2022-09-27T07:55:09;12.00;99.90
15819;DHT22;8010;53.986;12.106;2022-09-27T07:57:36;12.00;99.90
15819;DHT22;8010;53.986;12.106;2022-09-27T08:00:10;12.00;99.90
15819;DHT22;8010;53.986;12.106;2022-09-27T08:02:36;12.00;99.90
15819;DHT22;8010;53.986;12.106;2022-09-27T08:05:03;12.00;99.90
15819;DHT22;8010;53.986;12.106;2022-09-27T08:07:29;12.00;99.90
15819;DHT22;8010;53.986;12.106;2022-09-27T08:09:55;11.90;99.90
15819;DHT22;8010;53.986;12.106;2022-09-27T08:12:21;11.90;99.90
15819;DHT22;8010;53.986;12.106;2022-09-27T08:14:47;11.90;99.90
15819;DHT22;8010;53.986;12.106;2022-09-27T08:17:13;11.90;99.90
15819;DHT22;8010;53.986;12.106;2022-09-27T08:19:39;11.80;99.90
15819;DHT22;8010;53.986;12.106;2022-09-27T08:22:08;11.80;99.90
15819;DHT22;8010;53.986;12.106;2022-09-27T08:24:34;11.80;99.90
15819;DHT22;8010;53.986;12.106;2022-09-27T08:27:01;11.80;99.90
15819;DHT22;8010;53.986;12.106;2022-09-27T08:29:27;11.80;99.90
15819;DHT22;8010;53.986;12.106;2022-09-27T08:31:53;11.80;99.90
15819;DHT22;8010;53.986;12.106;2022-09-27T08:34:22;11.80;99.90
15819;DHT22;8010;53.986;12.106;2022-09-27T08:36:47;11.90;99.90
15819;DHT22;8010;53.986;12.106;2022-09-27T08:39:13;11.80;99.90
15819;DHT22;8010;53.986;12.106;2022-09-27T08:41:53;11.90;99.90
15819;DHT22;8010;53.986;12.106;2022-09-27T08:47:28;11.90;99.90
15819;DHT22;8010;53.986;12.106;2022-09-27T08:52:49;11.90;99.90
15819;DHT22;8010;53.986;12.106;2022-09-27T08:55:36;11.90;99.90
15819;DHT22;8010;53.986;12.106;2022-09-27T08:58:30;11.90;99.90
15819;DHT22;8010;53.986;12.106;2022-09-27T09:00:58;11.90;99.90
15819;DHT22;8010;53.986;12.106;2022-09-27T09:03:30;11.80;99.90
15819;DHT22;8010;53.986;12.106;2022-09-27T09:06:14;11.90;99.90
15819;DHT22;8010;53.986;12.106;2022-09-27T09:11:21;11.90;99.90
15819;DHT22;8010;53.986;12.106;2022-09-27T09:19:49;11.90;99.90
15819;DHT22;8010;53.986;12.106;2022-09-27T09:22:33;11.90;99.90
15819;DHT22;8010;53.986;12.106;2022-09-27T09:33:22;12.00;99.90
15819;DHT22;8010;53.986;12.106;2022-09-27T09:35:54;12.00;99.90
15819;DHT22;8010;53.986;12.106;2022-09-27T09:38:27;12.10;99.90
15819;DHT22;8010;53.986;12.106;2022-09-27T09:43:57;12.10;99.90
15819;DHT22;8010;53.986;12.106;2022-09-27T09:46:35;12.20;99.90
15819;DHT22;8010;53.986;12.106;2022-09-27T09:49:14;12.20;99.90
15819;DHT22;8010;53.986;12.106;2022-09-27T09:51:45;12.30;99.90
15819;DHT22;8010;53.986;12.106;2022-09-27T09:57:05;12.40;99.90
15819;DHT22;8010;53.986;12.106;2022-09-27T09:59:41;12.50;99.90
15819;DHT22;8010;53.986;12.106;2022-09-27T10:04:51;12.70;99.90
15819;DHT22;8010;53.986;12.106;2022-09-27T10:07:22;12.80;99.90
15819;DHT22;8010;53.986;12.106;2022-09-27T10:09:48;12.90;99.90
15819;DHT22;8010;53.986;12.106;2022-09-27T10:12:14;13.00;99.90
15819;DHT22;8010;53.986;12.106;2022-09-27T10:14:41;13.00;99.90
15819;DHT22;8010;53.986;12.106;2022-09-27T10:17:11;13.00;99.90
15819;DHT22;8010;53.986;12.106;2022-09-27T10:19:40;13.10;99.90
15819;DHT22;8010;53.986;12.106;2022-09-27T10:22:21;13.00;99.90
15819;DHT22;8010;53.986;12.106;2022-09-27T10:24:58;13.00;99.90
15819;DHT22;8010;53.986;12.106;2022-09-27T10:27:26;13.10;99.90
15819;DHT22;8010;53.986;12.106;2022-09-27T10:29:59;13.20;99.90
15819;DHT22;8010;53.986;12.106;2022-09-27T10:32:31;13.30;99.90
15819;DHT22;8010;53.986;12.106;2022-09-27T10:38:05;13.40;99.90
15819;DHT22;8010;53.986;12.106;2022-09-27T10:40:36;13.40;99.90
15819;DHT22;8010;53.986;12.106;2022-09-27T10:43:02;13.30;99.90
15819;DHT22;8010;53.986;12.106;2022-09-27T10:45:30;13.40;99.90
15819;DHT22;8010;53.986;12.106;2022-09-27T10:47:58;13.40;99.90
15819;DHT22;8010;53.986;12.106;2022-09-27T10:50:26;13.50;99.90
15819;DHT22;8010;53.986;12.106;2022-09-27T10:53:12;13.60;99.90
15819;DHT22;8010;53.986;12.106;2022-09-27T10:55:39;13.60;99.90
15819;DHT22;8010;53.986;12.106;2022-09-27T10:58:05;13.50;99.90
15819;DHT22;8010;53.986;12.106;2022-09-27T11:00:33;13.40;99.90
15819;DHT22;8010;53.986;12.106;2022-09-27T11:03:06;13.40;99.90
15819;DHT22;8010;53.986;12.106;2022-09-27T11:05:35;13.40;99.90
15819;DHT22;8010;53.986;12.106;2022-09-27T11:13:56;13.70;99.90
15819;DHT22;8010;53.986;12.106;2022-09-27T11:21:51;13.80;99.90
15819;DHT22;8010;53.986;12.106;2022-09-27T11:27:05;13.90;99.90
15819;DHT22;8010;53.986;12.106;2022-09-27T11:29:58;13.90;99.90
15819;DHT22;8010;53.986;12.106;2022-09-27T11:38:25;14.10;99.90
15819;DHT22;8010;53.986;12.106;2022-09-27T11:41:24;14.00;99.90
15819;DHT22;8010;53.986;12.106;2022-09-27T11:44:05;13.90;99.90
15819;DHT22;8010;53.986;12.106;2022-09-27T11:46:35;13.60;99.90
15819;DHT22;8010;53.986;12.106;2022-09-27T12:00:14;12.40;99.90
15819;DHT22;8010;53.986;12.106;2022-09-27T12:02:56;12.40;99.90
15819;DHT22;8010;53.986;12.106;2022-09-27T12:16:57;12.50;99.90
15819;DHT22;8010;53.986;12.106;2022-09-27T12:19:31;12.60;99.90
15819;DHT22;8010;53.986;12.106;2022-09-27T12:22:00;12.50;99.90
15819;DHT22;8010;53.986;12.106;2022-09-27T12:24:26;12.60;99.90
15819;DHT22;8010;53.986;12.106;2022-09-27T12:27:00;12.50;99.90
15819;DHT22;8010;53.986;12.106;2022-09-27T12:29:35;12.60;99.90
15819;DHT22;8010;53.986;12.106;2022-09-27T12:35:06;12.80;99.90
15819;DHT22;8010;53.986;12.106;2022-09-27T12:40:35;13.00;99.90
15819;DHT22;8010;53.986;12.106;2022-09-27T12:43:20;13.10;99.90
15819;DHT22;8010;53.986;12.106;2022-09-27T12:49:07;13.30;99.90
15819;DHT22;8010;53.986;12.106;2022-09-27T12:51:46;13.40;99.90
15819;DHT22;8010;53.986;12.106;2022-09-27T12:56:56;13.30;99.90
15819;DHT22;8010;53.986;12.106;2022-09-27T13:05:39;13.30;99.90
15819;DHT22;8010;53.986;12.106;2022-09-27T13:08:17;13.30;99.90
15819;DHT22;8010;53.986;12.106;2022-09-27T13:11:27;13.20;99.90
15819;DHT22;8010;53.986;12.106;2022-09-27T13:14:00;13.20;99.90
15819;DHT22;8010;53.986;12.106;2022-09-27T13:16:27;13.20;99.90
15819;DHT22;8010;53.986;12.106;2022-09-27T13:18:57;13.20;99.90
15819;DHT22;8010;53.986;12.106;2022-09-27T13:24:39;13.10;99.90
15819;DHT22;8010;53.986;12.106;2022-09-27T13:27:34;13.00;99.90
15819;DHT22;8010;53.986;12.106;2022-09-27T13:32:38;12.90;99.90
15819;DHT22;8010;53.986;12.106;2022-09-27T13:37:57;12.90;99.90
15819;DHT22;8010;53.986;12.106;2022-09-27T13:40:35;13.00;99.90
15819;DHT22;8010;53.986;12.106;2022-09-27T13:45:56;13.00;99.90
15819;DHT22;8010;53.986;12.106;2022-09-27T13:51:43;12.60;99.90
15819;DHT22;8010;53.986;12.106;2022-09-27T13:54:51;12.50;99.90
15819;DHT22;8010;53.986;12.106;2022-09-27T14:00:01;12.30;99.90
15819;DHT22;8010;53.986;12.106;2022-09-27T14:02:37;12.30;99.90
15819;DHT22;8010;53.986;12.106;2022-09-27T14:05:08;12.30;99.90
15819;DHT22;8010;53.986;12.106;2022-09-27T14:07:40;12.40;99.90
15819;DHT22;8010;53.986;12.106;2022-09-27T14:10:12;12.50;99.90
15819;DHT22;8010;53.986;12.106;2022-09-27T14:12:39;12.60;99.90
15819;DHT22;8010;53.986;12.106;2022-09-27T14:15:15;12.60;99.90
15819;DHT22;8010;53.986;12.106;2022-09-27T14:17:42;12.70;99.90
15819;DHT22;8010;53.986;12.106;2022-09-27T14:20:38;12.70;99.90
15819;DHT22;8010;53.986;12.106;2022-09-27T14:23:05;12.70;99.90
15819;DHT22;8010;53.986;12.106;2022-09-27T14:25:31;12.70;99.90
15819;DHT22;8010;53.986;12.106;2022-09-27T14:27:57;12.60;99.90
15819;DHT22;8010;53.986;12.106;2022-09-27T14:30:26;12.50;99.90
15819;DHT22;8010;53.986;12.106;2022-09-27T14:32:56;12.50;99.90
15819;DHT22;8010;53.986;12.106;2022-09-27T14:35:28;12.40;99.90
15819;DHT22;8010;53.986;12.106;2022-09-27T14:38:15;12.50;99.90
15819;DHT22;8010;53.986;12.106;2022-09-27T14:40:42;12.50;99.90
15819;DHT22;8010;53.986;12.106;2022-09-27T14:43:18;12.60;99.90
15819;DHT22;8010;53.986;12.106;2022-09-27T14:45:46;12.70;99.90
15819;DHT22;8010;53.986;12.106;2022-09-27T14:53:50;12.90;99.90
15819;DHT22;8010;53.986;12.106;2022-09-27T14:56:35;12.90;99.90
15819;DHT22;8010;53.986;12.106;2022-09-27T14:59:13;12.90;99.90
15819;DHT22;8010;53.986;12.106;2022-09-27T15:01:48;13.20;99.90
15819;DHT22;8010;53.986;12.106;2022-09-27T15:04:14;13.20;99.90
15819;DHT22;8010;53.986;12.106;2022-09-27T15:06:40;13.30;99.90
15819;DHT22;8010;53.986;12.106;2022-09-27T15:09:14;13.30;99.90
15819;DHT22;8010;53.986;12.106;2022-09-27T15:11:42;13.30;99.90
15819;DHT22;8010;53.986;12.106;2022-09-27T15:14:14;13.20;99.90
15819;DHT22;8010;53.986;12.106;2022-09-27T15:16:40;13.10;99.90
15819;DHT22;8010;53.986;12.106;2022-09-27T15:19:15;13.00;99.90
15819;DHT22;8010;53.986;12.106;2022-09-27T15:21:43;12.90;99.90
15819;DHT22;8010;53.986;12.106;2022-09-27T15:24:39;12.80;99.90
15819;DHT22;8010;53.986;12.106;2022-09-27T15:27:22;12.70;99.90
15819;DHT22;8010;53.986;12.106;2022-09-27T15:29:50;12.60;99.90
15819;DHT22;8010;53.986;12.106;2022-09-27T15:32:19;12.60;99.90
15819;DHT22;8010;53.986;12.106;2022-09-27T15:34:45;12.60;99.90
15819;DHT22;8010;53.986;12.106;2022-09-27T15:37:32;12.60;99.90
15819;DHT22;8010;53.986;12.106;2022-09-27T15:42:56;12.40;99.90
15819;DHT22;8010;53.986;12.106;2022-09-27T15:45:30;12.30;99.90
15819;DHT22;8010;53.986;12.106;2022-09-27T15:48:15;12.30;99.90
15819;DHT22;8010;53.986;12.106;2022-09-27T15:50:41;12.20;99.90
15819;DHT22;8010;53.986;12.106;2022-09-27T15:53:08;12.30;99.90
15819;DHT22;8010;53.986;12.106;2022-09-27T15:55:39;12.30;99.90
15819;DHT22;8010;53.986;12.106;2022-09-27T15:58:10;12.30;99.90
15819;DHT22;8010;53.986;12.106;2022-09-27T16:00:52;12.30;99.90
15819;DHT22;8010;53.986;12.106;2022-09-27T16:03:18;12.30;99.90
15819;DHT22;8010;53.986;12.106;2022-09-27T16:05:44;12.20;99.90
15819;DHT22;8010;53.986;12.106;2022-09-27T16:08:10;12.20;99.90
15819;DHT22;8010;53.986;12.106;2022-09-27T16:10:38;12.20;99.90
15819;DHT22;8010;53.986;12.106;2022-09-27T16:13:04;12.10;99.90
15819;DHT22;8010;53.986;12.106;2022-09-27T16:15:29;12.10;99.90
15819;DHT22;8010;53.986;12.106;2022-09-27T16:17:55;12.10;99.90
15819;DHT22;8010;53.986;12.106;2022-09-27T16:20:24;12.00;99.90
15819;DHT22;8010;53.986;12.106;2022-09-27T16:22:51;13.10;99.90
15819;DHT22;8010;53.986;12.106;2022-09-27T16:25:17;11.90;99.90
15819;DHT22;8010;53.986;12.106;2022-09-27T16:27:43;11.90;99.90
15819;DHT22;8010;53.986;12.106;2022-09-27T16:30:09;11.80;99.90
15819;DHT22;8010;53.986;12.106;2022-09-27T16:32:42;11.80;99.90
15819;DHT22;8010;53.986;12.106;2022-09-27T16:35:10;11.90;99.90
15819;DHT22;8010;53.986;12.106;2022-09-27T16:37:35;11.80;99.90
15819;DHT22;8010;53.986;12.106;2022-09-27T16:40:02;11.80;99.90
15819;DHT22;8010;53.986;12.106;2022-09-27T16:42:28;11.80;99.90
15819;DHT22;8010;53.986;12.106;2022-09-27T16:44:54;11.70;99.90
15819;DHT22;8010;53.986;12.106;2022-09-27T16:47:20;11.70;99.90
15819;DHT22;8010;53.986;12.106;2022-09-27T16:49:45;12.30;99.90
15819;DHT22;8010;53.986;12.106;2022-09-27T16:52:30;11.70;99.90
15819;DHT22;8010;53.986;12.106;2022-09-27T16:54:59;11.60;99.90
15819;DHT22;8010;53.986;12.106;2022-09-27T16:57:26;11.60;99.90
15819;DHT22;8010;53.986;12.106;2022-09-27T16:59:54;11.60;99.90
15819;DHT22;8010;53.986;12.106;2022-09-27T17:02:23;11.50;99.90
15819;DHT22;8010;53.986;12.106;2022-09-27T17:04:51;11.50;99.90
15819;DHT22;8010;53.986;12.106;2022-09-27T17:07:18;11.50;99.90
15819;DHT22;8010;53.986;12.106;2022-09-27T17:09:44;11.50;99.90
15819;DHT22;8010;53.986;12.106;2022-09-27T17:12:10;11.50;99.90
15819;DHT22;8010;53.986;12.106;2022-09-27T17:14:36;11.50;99.90
15819;DHT22;8010;53.986;12.106;2022-09-27T17:17:01;11.50;99.90
15819;DHT22;8010;53.986;12.106;2022-09-27T17:19:27;11.50;99.90
15819;DHT22;8010;53.986;12.106;2022-09-27T17:21:53;11.60;99.90
15819;DHT22;8010;53.986;12.106;2022-09-27T17:24:20;11.50;99.90
15819;DHT22;8010;53.986;12.106;2022-09-27T17:26:46;11.50;99.90
15819;DHT22;8010;53.986;12.106;2022-09-27T17:29:12;11.50;99.90
15819;DHT22;8010;53.986;12.106;2022-09-27T17:31:39;11.50;99.90
15819;DHT22;8010;53.986;12.106;2022-09-27T17:34:05;11.50;99.90
15819;DHT22;8010;53.986;12.106;2022-09-27T17:36:32;11.50;99.90
15819;DHT22;8010;53.986;12.106;2022-09-27T17:39:00;11.40;99.90
15819;DHT22;8010;53.986;12.106;2022-09-27T17:41:27;11.40;99.90
15819;DHT22;8010;53.986;12.106;2022-09-27T17:43:58;12.60;99.90
15819;DHT22;8010;53.986;12.106;2022-09-27T17:46:26;11.40;99.90
15819;DHT22;8010;53.986;12.106;2022-09-27T17:48:52;11.40;99.90
15819;DHT22;8010;53.986;12.106;2022-09-27T17:51:37;11.40;99.90
15819;DHT22;8010;53.986;12.106;2022-09-27T17:54:04;11.40;99.90
15819;DHT22;8010;53.986;12.106;2022-09-27T17:56:34;11.30;99.90
15819;DHT22;8010;53.986;12.106;2022-09-27T17:59:01;11.30;99.90
15819;DHT22;8010;53.986;12.106;2022-09-27T18:01:26;11.30;99.90
15819;DHT22;8010;53.986;12.106;2022-09-27T18:03:53;11.30;99.90
15819;DHT22;8010;53.986;12.106;2022-09-27T18:06:20;11.30;99.90
15819;DHT22;8010;53.986;12.106;2022-09-27T18:08:45;11.30;99.90
15819;DHT22;8010;53.986;12.106;2022-09-27T18:11:13;11.30;99.90
15819;DHT22;8010;53.986;12.106;2022-09-27T18:13:40;11.30;99.90
15819;DHT22;8010;53.986;12.106;2022-09-27T18:16:11;11.20;99.90
15819;DHT22;8010;53.986;12.106;2022-09-27T18:18:39;11.30;99.90
15819;DHT22;8010;53.986;12.106;2022-09-27T18:21:10;11.20;99.90